ADY weather

Club Aereo Del Yaqui Airport
Cajeme, Sonora, Mexico

Public forecast

Using degrees Celsius for public forecast. Weather courtesy of forecast.io.

Closest aviation weather report (METAR) to Club Aereo Del Yaqui Airport

Closest report is Ciudad Obregón International Airport, 10.5 nm (19.4 km) ESE. Retrieved 2020/08/04 15:40 UTC (34 minutes ago):

MMCN 041540Z 10006KT 10SM BKN100 32/18 A2991 RMK 8/030 HZY

Closest aviation forecast (TAF) to Club Aereo Del Yaqui Airport

Forecast is more than 6 hours old.

Closest forecast is Ciudad Obregón International Airport, 10.5 nm (19.4 km) ESE. Retrieved 2020/08/04 06:27 UTC (10 hours ago):

TAF MMCN 040525Z 0406/0506 23005KT P6SM SCT100 BKN200 TEMPO 0406/0409 6SM TSRA BKN020CB FM041800 22010KT P6SM SCT030 FM050300 24005KT P6SM SCT200